Time;durP1;ratioP1;P1;durP2;ratioP2;P2;SDS_P1;SDS_P2;PMS_P1;PMS_P2;Temp;Humidity;BMP_temperature;BMP_pressure;BME280_temperature;BME280_humidity;BME280_pressure;Samples;Min_cycle;Max_cycle;Signal;HPM_P1;HPM_P2
2022/12/25 00:01:12;;;;;;;63.07;24.67;;;5.60;99.90;;;;;;5040998;28;20049;-79
2022/12/25 00:03:38;;;;;;;65.57;24.77;;;5.70;99.90;;;;;;5073003;28;20067;-79
2022/12/25 00:06:04;;;;;;;63.47;23.63;;;5.60;99.90;;;;;;5044811;28;20040;-79
2022/12/25 00:08:31;;;;;;;62.83;23.90;;;5.60;99.90;;;;;;5056944;28;20051;-80
2022/12/25 00:11:02;;;;;;;78.47;24.80;;;5.60;99.90;;;;;;5060083;28;20057;-79
2022/12/25 00:13:28;;;;;;;73.18;25.63;;;5.60;99.90;;;;;;5057767;28;20060;-80
2022/12/25 00:15:54;;;;;;;72.27;26.17;;;5.60;99.90;;;;;;5060009;28;20044;-79
2022/12/25 00:18:21;;;;;;;72.77;23.47;;;5.60;99.90;;;;;;5057827;28;20108;-79
2022/12/25 00:21:01;;;;;;;71.47;24.10;;;5.60;99.90;;;;;;5064033;28;20053;-79
2022/12/25 00:23:27;;;;;;;76.03;25.90;;;5.60;99.90;;;;;;5055390;28;20029;-78
2022/12/25 00:25:54;;;;;;;55.27;21.87;;;5.50;99.90;;;;;;5060730;28;20040;-80
2022/12/25 00:28:21;;;;;;;69.10;24.97;;;5.60;99.90;;;;;;5041591;28;20088;-79
2022/12/25 00:30:47;;;;;;;67.13;25.43;;;5.50;99.90;;;;;;5061516;28;20037;-79
2022/12/25 00:33:12;;;;;;;73.60;25.50;;;5.60;99.90;;;;;;5057151;28;20052;-79
2022/12/25 00:35:38;;;;;;;67.67;25.27;;;5.60;99.90;;;;;;5058543;28;20067;-79
2022/12/25 00:38:04;;;;;;;64.20;24.40;;;5.60;99.90;;;;;;5056252;28;20041;-80
2022/12/25 00:40:29;;;;;;;64.10;25.47;;;5.60;99.90;;;;;;5041963;28;20356;-79
2022/12/25 00:42:55;;;;;;;61.13;24.57;;;5.60;99.90;;;;;;5061121;28;20037;-79
2022/12/25 00:45:21;;;;;;;66.97;26.67;;;5.60;99.90;;;;;;5042578;28;20082;-80
2022/12/25 00:47:46;;;;;;;68.97;25.10;;;5.70;99.90;;;;;;5056694;28;20120;-79
2022/12/25 00:50:12;;;;;;;76.33;26.20;;;5.70;99.90;;;;;;5059605;28;20056;-79
2022/12/25 00:52:38;;;;;;;68.03;24.80;;;5.70;99.90;;;;;;5060492;28;20623;-79
2022/12/25 00:55:04;;;;;;;72.23;24.37;;;5.70;99.90;;;;;;5062332;28;20070;-80
2022/12/25 00:57:29;;;;;;;65.90;25.03;;;5.70;99.90;;;;;;5059149;28;20044;-79
2022/12/25 00:59:55;;;;;;;69.13;24.53;;;5.80;99.90;;;;;;5043377;28;20514;-79
2022/12/25 01:02:24;;;;;;;68.27;24.20;;;5.80;99.90;;;;;;5058028;28;20107;-80
2022/12/25 01:04:52;;;;;;;60.57;23.37;;;5.70;99.90;;;;;;5039697;28;20079;-78
2022/12/25 01:07:19;;;;;;;61.33;23.50;;;5.70;99.90;;;;;;5057715;28;20048;-78
2022/12/25 01:12:31;;;;;;;67.93;24.73;;;5.70;99.90;;;;;;5058754;28;20467;-79
2022/12/25 01:14:57;;;;;;;69.60;24.43;;;5.80;99.90;;;;;;5059499;28;20439;-79
2022/12/25 01:17:23;;;;;;;57.97;25.30;;;5.80;99.90;;;;;;5060774;28;20057;-79
2022/12/25 01:19:49;;;;;;;61.83;22.50;;;5.70;99.90;;;;;;5066755;28;20044;-79
2022/12/25 01:22:15;;;;;;;64.60;23.43;;;5.80;99.90;;;;;;5058936;28;20043;-79
2022/12/25 01:24:43;;;;;;;63.37;22.63;;;5.80;99.90;;;;;;5059522;28;20236;-79
2022/12/25 01:27:09;;;;;;;74.23;23.83;;;5.80;99.90;;;;;;5058701;28;20053;-79
2022/12/25 01:29:35;;;;;;;52.80;21.33;;;5.80;99.90;;;;;;5060801;28;20037;-79
2022/12/25 01:32:01;;;;;;;61.33;22.63;;;5.80;99.90;;;;;;5059834;28;20128;-80
2022/12/25 01:34:27;;;;;;;64.83;23.53;;;5.80;99.90;;;;;;5057069;28;20048;-79
2022/12/25 01:36:53;;;;;;;69.40;23.80;;;5.80;99.90;;;;;;5058986;28;20045;-80
2022/12/25 01:39:18;;;;;;;71.00;25.20;;;5.80;99.90;;;;;;5057825;28;20396;-79
2022/12/25 01:41:44;;;;;;;57.63;22.77;;;5.90;99.90;;;;;;5058574;28;20037;-79
2022/12/25 01:44:13;;;;;;;67.43;24.80;;;5.90;99.90;;;;;;5057189;28;20071;-80
2022/12/25 01:46:39;;;;;;;61.40;28.17;;;6.00;99.90;;;;;;5058966;28;20196;-80
2022/12/25 01:49:14;;;;;;;69.83;25.27;;;6.00;99.90;;;;;;5064898;28;20064;-79
2022/12/25 01:51:50;;;;;;;70.20;26.50;;;6.10;99.90;;;;;;5056837;28;20100;-79
2022/12/25 01:54:24;;;;;;;66.33;24.50;;;6.20;99.90;;;;;;5058580;28;20048;-80
2022/12/25 01:56:52;;;;;;;62.33;24.23;;;6.20;99.90;;;;;;5059317;28;20605;-80
2022/12/25 01:59:20;;;;;;;67.87;24.83;;;6.20;99.90;;;;;;5056586;28;20059;-79
2022/12/25 02:01:46;;;;;;;63.47;24.43;;;6.30;99.90;;;;;;5057314;28;20051;-79
2022/12/25 02:04:15;;;;;;;60.17;24.20;;;6.30;99.90;;;;;;5055762;28;20037;-78
2022/12/25 02:06:41;;;;;;;63.17;23.33;;;6.30;99.90;;;;;;5056695;28;20049;-79
2022/12/25 02:09:07;;;;;;;59.53;22.77;;;6.40;99.90;;;;;;5057400;28;20086;-79
2022/12/25 02:12:18;;;;;;;68.27;24.27;;;6.40;99.90;;;;;;5055503;28;20052;-79
2022/12/25 02:14:19;;;;;;;63.83;23.43;;;6.40;99.90;;;;;;5055148;28;20121;-80
2022/12/25 02:16:49;;;;;;;67.40;23.37;;;6.50;99.90;;;;;;5060813;28;20079;-79
2022/12/25 02:19:30;;;;;;;60.57;22.80;;;6.60;99.90;;;;;;5067386;28;20053;-80
2022/12/25 02:22:40;;;;;;;55.20;22.07;;;6.60;99.90;;;;;;5062871;28;20661;-78
2022/12/25 02:25:43;;;;;;;62.77;22.97;;;6.60;99.90;;;;;;5008688;28;20151;-79
2022/12/25 02:28:15;;;;;;;52.03;21.90;;;6.60;99.90;;;;;;5054984;28;20037;-79
2022/12/25 02:30:43;;;;;;;;;;;6.60;99.90;;;;;;5057072;28;20049;-79
2022/12/25 02:36:09;;;;;;;58.10;23.77;;;6.60;99.90;;;;;;5057195;28;20052;-79
2022/12/25 02:39:56;;;;;;;59.13;21.27;;;6.60;99.90;;;;;;5057575;28;20600;-79
2022/12/25 02:41:33;;;;;;;53.40;22.37;;;6.60;99.90;;;;;;5061076;28;20068;-79
2022/12/25 03:12:16;;;;;;;57.37;21.43;;;6.70;99.90;;;;;;4981539;28;20046;-80
2022/12/25 03:17:31;;;;;;;55.87;20.67;;;6.80;99.90;;;;;;5057868;28;20053;-79
2022/12/25 03:28:12;;;;;;;55.27;22.20;;;7.00;99.90;;;;;;5063118;28;20049;-79
2022/12/25 03:31:12;;;;;;;52.03;21.90;;;7.00;99.90;;;;;;5061209;28;20061;-78
2022/12/25 04:38:13;;;;;;;59.20;22.47;;;7.40;99.90;;;;;;5058844;28;20040;-79
2022/12/25 04:40:39;;;;;;;56.97;21.93;;;7.40;99.90;;;;;;5061025;28;20049;-79
2022/12/25 04:43:04;;;;;;;50.10;23.00;;;7.50;99.90;;;;;;5061880;28;20080;-79
2022/12/25 04:45:30;;;;;;;58.20;23.90;;;7.50;99.90;;;;;;5056511;28;20397;-79
2022/12/25 04:47:58;;;;;;;54.33;23.87;;;7.50;99.90;;;;;;5057193;28;20075;-79
2022/12/25 04:50:24;;;;;;;70.90;26.27;;;7.50;99.90;;;;;;5059793;28;20037;-79
2022/12/25 04:52:50;;;;;;;65.57;25.23;;;7.50;99.90;;;;;;5059042;28;20094;-77
2022/12/25 04:55:16;;;;;;;63.57;24.50;;;7.60;99.90;;;;;;5058812;28;20040;-79
2022/12/25 04:57:41;;;;;;;63.20;25.77;;;7.60;99.90;;;;;;5057553;28;20064;-78
2022/12/25 05:00:08;;;;;;;71.73;25.53;;;7.60;99.90;;;;;;5057714;28;20056;-79
2022/12/25 05:02:33;;;;;;;65.23;26.57;;;7.60;99.90;;;;;;5040623;28;20053;-77
2022/12/25 05:04:59;;;;;;;68.40;25.80;;;7.70;99.90;;;;;;5058714;28;20531;-79
2022/12/25 05:07:25;;;;;;;56.37;24.93;;;7.70;99.90;;;;;;5057422;28;20057;-79
2022/12/25 05:09:50;;;;;;;66.87;26.23;;;7.70;99.90;;;;;;5063003;28;20048;-79
2022/12/25 05:12:16;;;;;;;61.17;24.87;;;7.70;99.90;;;;;;5056439;28;20114;-79
2022/12/25 05:14:42;;;;;;;64.00;25.53;;;7.70;99.90;;;;;;5059063;28;20041;-80
2022/12/25 05:17:07;;;;;;;79.63;27.90;;;7.70;99.90;;;;;;5057335;28;20106;-78
2022/12/25 05:19:33;;;;;;;65.80;27.00;;;7.70;99.90;;;;;;5057051;28;20044;-79
2022/12/25 05:21:59;;;;;;;64.43;25.77;;;7.70;99.90;;;;;;5065257;28;20051;-79
2022/12/25 05:24:26;;;;;;;81.47;28.53;;;7.80;99.90;;;;;;5042064;28;20136;-79
2022/12/25 05:26:52;;;;;;;69.97;28.33;;;7.80;99.90;;;;;;5059974;28;20040;-79
2022/12/25 05:29:18;;;;;;;73.30;28.63;;;7.80;99.90;;;;;;5061490;28;20052;-79
2022/12/25 05:31:44;;;;;;;82.47;29.90;;;7.80;99.90;;;;;;5055904;28;20037;-79
2022/12/25 05:34:09;;;;;;;71.87;29.00;;;7.80;99.90;;;;;;5056594;28;20376;-79
2022/12/25 05:36:35;;;;;;;66.97;28.20;;;7.80;99.90;;;;;;5058715;28;20131;-80
2022/12/25 05:39:01;;;;;;;80.77;31.33;;;7.80;99.90;;;;;;5057233;28;20048;-79
2022/12/25 05:41:26;;;;;;;76.43;30.43;;;7.90;99.90;;;;;;5055634;28;20408;-80
2022/12/25 05:43:52;;;;;;;78.47;30.40;;;7.90;99.90;;;;;;5056580;28;20041;-80
2022/12/25 05:46:18;;;;;;;74.73;30.67;;;7.90;99.90;;;;;;5041055;28;20094;-79
2022/12/25 05:48:43;;;;;;;73.83;28.93;;;8.00;99.90;;;;;;5062794;28;20084;-80
2022/12/25 05:51:11;;;;;;;72.03;30.60;;;8.00;99.90;;;;;;5056906;28;20044;-80
2022/12/25 05:53:38;;;;;;;80.50;31.00;;;8.00;99.90;;;;;;5057602;28;20057;-79
2022/12/25 05:56:06;;;;;;;71.03;29.67;;;8.00;99.90;;;;;;5057636;28;20044;-79
2022/12/25 05:58:33;;;;;;;72.40;29.77;;;8.10;99.90;;;;;;5039900;28;20056;-79
2022/12/25 06:00:58;;;;;;;68.23;28.37;;;8.10;99.90;;;;;;5070598;28;20048;-79
2022/12/25 06:03:24;;;;;;;73.97;30.97;;;8.10;99.90;;;;;;5057931;28;20040;-80
2022/12/25 06:05:50;;;;;;;65.73;27.77;;;8.10;99.90;;;;;;5038805;28;20104;-79
2022/12/25 06:08:16;;;;;;;76.77;30.60;;;8.10;99.90;;;;;;5038604;28;20113;-78
2022/12/25 06:10:42;;;;;;;70.73;30.17;;;8.10;99.90;;;;;;5056281;28;20099;-80
2022/12/25 06:13:07;;;;;;;69.73;29.83;;;8.20;99.90;;;;;;5041813;28;20606;-79
2022/12/25 06:15:33;;;;;;;64.13;28.90;;;8.20;99.90;;;;;;5060189;28;20059;-80
2022/12/25 06:18:00;;;;;;;74.20;30.67;;;8.20;99.90;;;;;;5056656;28;20029;-80
2022/12/25 06:20:26;;;;;;;74.63;29.37;;;8.20;99.90;;;;;;5058742;28;21214;-80
2022/12/25 06:22:52;;;;;;;70.57;30.53;;;8.20;99.90;;;;;;5054919;28;20041;-79
2022/12/25 06:25:17;;;;;;;71.80;29.37;;;8.20;99.90;;;;;;5062576;28;20557;-80
2022/12/25 06:27:43;;;;;;;62.87;28.67;;;8.20;99.90;;;;;;5058366;28;20094;-79
2022/12/25 06:30:09;;;;;;;79.80;31.37;;;8.20;99.90;;;;;;5041533;28;20037;-79
2022/12/25 06:32:35;;;;;;;65.27;27.53;;;8.20;99.90;;;;;;5061815;28;20045;-80
2022/12/25 06:35:01;;;;;;;59.77;27.10;;;8.20;99.90;;;;;;5057225;28;20080;-80
2022/12/25 06:37:26;;;;;;;59.17;28.50;;;8.20;99.90;;;;;;5058945;28;20103;-80
2022/12/25 06:39:52;;;;;;;65.50;29.87;;;8.30;99.90;;;;;;5060613;28;20045;-79
2022/12/25 06:42:18;;;;;;;62.13;28.80;;;8.30;99.90;;;;;;5059768;28;20041;-79
2022/12/25 06:44:43;;;;;;;67.60;28.03;;;8.20;99.90;;;;;;5054800;28;20067;-80
2022/12/25 06:47:09;;;;;;;70.07;28.77;;;8.30;99.90;;;;;;5057829;28;20055;-80
2022/12/25 06:49:35;;;;;;;71.80;30.00;;;8.30;99.90;;;;;;5058072;28;20049;-80
2022/12/25 06:52:01;;;;;;;69.70;29.37;;;8.30;99.90;;;;;;5056431;28;20078;-79
2022/12/25 06:54:27;;;;;;;67.03;28.80;;;8.30;99.90;;;;;;5058664;28;20504;-79
2022/12/25 06:56:53;;;;;;;60.40;27.93;;;8.30;99.90;;;;;;5056904;28;20049;-79
2022/12/25 06:59:18;;;;;;;67.20;31.27;;;8.30;99.90;;;;;;5056393;28;20072;-77
2022/12/25 07:01:54;;;;;;;74.87;30.97;;;8.30;99.90;;;;;;5058828;28;20076;-79
2022/12/25 07:04:41;;;;;;;63.10;28.40;;;8.30;99.90;;;;;;5055520;28;20056;-79
2022/12/25 07:07:07;;;;;;;61.53;29.13;;;8.40;99.90;;;;;;5067379;28;20052;-79
2022/12/25 07:09:33;;;;;;;61.20;28.03;;;8.40;99.90;;;;;;5060245;28;20134;-78
2022/12/25 07:12:04;;;;;;;61.93;27.70;;;8.40;99.90;;;;;;5059187;28;20053;-79
2022/12/25 07:14:29;;;;;;;59.77;26.13;;;8.40;99.90;;;;;;5056219;28;20457;-79
2022/12/25 07:16:55;;;;;;;53.50;25.97;;;8.40;99.90;;;;;;5059142;28;20072;-80
2022/12/25 07:19:21;;;;;;;51.00;24.00;;;8.40;99.90;;;;;;5054623;28;20105;-80
2022/12/25 07:21:47;;;;;;;55.17;24.67;;;8.40;99.90;;;;;;5055206;28;20063;-79
2022/12/25 07:24:21;;;;;;;50.80;25.13;;;8.40;99.90;;;;;;5057555;28;20067;-80
2022/12/25 07:26:47;;;;;;;57.87;24.03;;;8.50;99.90;;;;;;5059140;28;20059;-79
2022/12/25 07:29:13;;;;;;;47.00;22.60;;;8.50;99.90;;;;;;5058857;28;20041;-80
2022/12/25 07:31:38;;;;;;;46.80;23.53;;;8.50;99.90;;;;;;5054020;28;20072;-79
2022/12/25 07:34:04;;;;;;;52.63;24.90;;;8.40;99.90;;;;;;5066114;28;20496;-79
2022/12/25 07:36:30;;;;;;;46.20;23.90;;;8.50;99.90;;;;;;5054360;28;20052;-79
2022/12/25 07:38:56;;;;;;;46.37;22.97;;;8.50;99.90;;;;;;5054853;28;20105;-79
2022/12/25 07:41:22;;;;;;;44.40;22.83;;;8.40;99.90;;;;;;5057103;28;20590;-80
2022/12/25 07:43:52;;;;;;;38.83;21.37;;;8.40;99.90;;;;;;5058901;28;20045;-79
2022/12/25 07:46:18;;;;;;;45.77;21.60;;;8.40;99.90;;;;;;5061494;28;20058;-79
2022/12/25 07:48:44;;;;;;;43.07;21.67;;;8.40;99.90;;;;;;5054948;28;20037;-80
2022/12/25 07:51:12;;;;;;;38.50;20.03;;;8.40;99.90;;;;;;5057464;28;20052;-80
2022/12/25 07:53:38;;;;;;;42.47;20.27;;;8.40;99.90;;;;;;5054218;28;20041;-79
2022/12/25 07:56:07;;;;;;;43.00;19.93;;;8.50;99.90;;;;;;5060910;28;20053;-81
2022/12/25 07:58:33;;;;;;;36.23;18.27;;;8.50;99.90;;;;;;5057843;28;20052;-79
2022/12/25 08:01:05;;;;;;;35.97;18.57;;;8.50;99.90;;;;;;5052680;28;20068;-79
2022/12/25 08:03:33;;;;;;;38.57;18.37;;;8.50;99.90;;;;;;5057827;28;20060;-79
2022/12/25 08:06:07;;;;;;;36.40;18.57;;;8.50;99.90;;;;;;5060828;28;20741;-78
2022/12/25 08:08:34;;;;;;;35.80;17.83;;;8.50;99.90;;;;;;5059827;28;20068;-85
2022/12/25 08:11:00;;;;;;;38.07;17.23;;;8.50;99.90;;;;;;5043499;28;20641;-80
2022/12/25 08:13:28;;;;;;;35.60;17.43;;;8.40;99.90;;;;;;5067903;28;20369;-80
2022/12/25 08:15:58;;;;;;;30.83;16.40;;;8.50;99.90;;;;;;5060294;28;20032;-80
2022/12/25 08:18:24;;;;;;;30.17;15.63;;;8.50;99.90;;;;;;5060056;28;20041;-80
2022/12/25 08:20:50;;;;;;;35.17;16.63;;;8.40;99.90;;;;;;5061069;28;20037;-80
2022/12/25 08:23:15;;;;;;;36.13;16.93;;;8.50;99.90;;;;;;5058570;28;20107;-79
2022/12/25 08:25:41;;;;;;;29.90;15.63;;;8.40;99.90;;;;;;5073114;28;20044;-79
2022/12/25 08:28:07;;;;;;;30.60;15.57;;;8.40;99.90;;;;;;5059319;28;20054;-78
2022/12/25 08:30:32;;;;;;;30.33;14.33;;;8.50;99.90;;;;;;5076648;28;20049;-78
2022/12/25 08:32:58;;;;;;;27.77;14.57;;;8.40;99.90;;;;;;5068741;28;20041;-79
2022/12/25 08:35:25;;;;;;;33.43;14.50;;;8.50;99.90;;;;;;5074370;28;20060;-80
2022/12/25 08:37:51;;;;;;;30.90;14.67;;;8.50;99.90;;;;;;5074012;28;20052;-79
2022/12/25 08:40:17;;;;;;;32.13;13.33;;;8.50;99.90;;;;;;5067335;28;20128;-79
2022/12/25 08:42:43;;;;;;;34.77;14.73;;;8.50;99.90;;;;;;5069019;28;20523;-80
2022/12/25 08:45:09;;;;;;;22.47;13.30;;;8.50;99.90;;;;;;5069348;28;20041;-79
2022/12/25 08:47:35;;;;;;;25.17;13.47;;;8.50;99.90;;;;;;5072416;28;20526;-80
2022/12/25 08:50:01;;;;;;;28.53;13.80;;;8.50;99.90;;;;;;5076554;28;20115;-80
2022/12/25 08:52:27;;;;;;;27.10;13.13;;;8.50;99.90;;;;;;5068782;28;20067;-80
2022/12/25 08:54:53;;;;;;;25.50;13.30;;;8.50;99.90;;;;;;5067156;28;20082;-79
2022/12/25 08:57:19;;;;;;;25.10;13.07;;;8.50;99.90;;;;;;5067788;28;20048;-80
2022/12/25 08:59:45;;;;;;;24.60;12.80;;;8.50;99.90;;;;;;5073322;28;20099;-79
2022/12/25 09:02:11;;;;;;;28.60;13.07;;;8.50;99.90;;;;;;5071119;28;20049;-80
2022/12/25 09:04:37;;;;;;;22.30;12.17;;;8.50;99.90;;;;;;5070249;28;20047;-78
2022/12/25 09:07:03;;;;;;;27.93;13.33;;;8.50;99.90;;;;;;5071745;28;20085;-78
2022/12/25 09:09:28;;;;;;;28.13;12.63;;;8.50;99.90;;;;;;5062270;28;20037;-78
2022/12/25 09:11:54;;;;;;;28.60;12.60;;;8.50;99.90;;;;;;5060305;28;20047;-80
2022/12/25 09:14:20;;;;;;;24.37;12.17;;;8.50;99.90;;;;;;5067908;28;20040;-80
2022/12/25 09:16:48;;;;;;;26.47;12.73;;;8.50;99.90;;;;;;5062277;28;20048;-80
2022/12/25 09:19:13;;;;;;;28.97;12.40;;;8.60;99.90;;;;;;5076720;28;20036;-80
2022/12/25 09:21:39;;;;;;;30.17;13.13;;;8.50;99.90;;;;;;5067961;28;20051;-79
2022/12/25 09:24:05;;;;;;;26.27;12.07;;;8.60;99.90;;;;;;5068209;28;20041;-80
2022/12/25 09:26:31;;;;;;;22.53;12.10;;;8.60;99.90;;;;;;5069604;28;20037;-81
2022/12/25 09:28:56;;;;;;;22.10;12.20;;;8.60;99.90;;;;;;5065759;28;20033;-80
2022/12/25 09:31:23;;;;;;;22.80;11.50;;;8.60;99.90;;;;;;5059739;28;20083;-80
2022/12/25 09:33:49;;;;;;;20.70;11.80;;;8.60;99.90;;;;;;5065424;28;20048;-80
2022/12/25 09:36:15;;;;;;;24.13;11.70;;;8.60;99.90;;;;;;5050201;28;20077;-80
2022/12/25 09:38:41;;;;;;;23.27;12.03;;;8.60;99.90;;;;;;5073046;28;20090;-80
2022/12/25 09:41:34;;;;;;;20.67;11.50;;;8.60;99.90;;;;;;5066076;28;20044;-80
2022/12/25 09:44:09;;;;;;;22.50;10.77;;;8.70;99.90;;;;;;5064608;28;20068;-79
2022/12/25 09:46:49;;;;;;;21.97;11.10;;;8.70;99.90;;;;;;5072192;28;20052;-81
2022/12/25 09:49:35;;;;;;;23.87;11.07;;;8.70;99.90;;;;;;5069438;28;20041;-80
2022/12/25 09:52:11;;;;;;;19.97;11.27;;;8.70;99.90;;;;;;5070641;28;20082;-81
2022/12/25 09:54:48;;;;;;;19.00;10.43;;;8.70;99.90;;;;;;5074775;28;20106;-80
2022/12/25 09:57:14;;;;;;;23.97;11.00;;;8.80;99.90;;;;;;5075513;28;20044;-79
2022/12/25 09:59:43;;;;;;;17.83;10.60;;;8.80;99.90;;;;;;5074999;28;20091;-77
2022/12/25 10:02:31;;;;;;;21.13;10.87;;;8.80;99.90;;;;;;5073833;28;20068;-78
2022/12/25 10:05:12;;;;;;;23.30;10.77;;;8.80;99.90;;;;;;5078945;28;20055;-79
2022/12/25 10:07:47;;;;;;;17.87;10.93;;;8.80;99.90;;;;;;5080817;28;20044;-79
2022/12/25 10:10:55;;;;;;;21.63;10.97;;;8.90;99.90;;;;;;5075868;28;20107;-79
2022/12/25 10:13:27;;;;;;;20.97;10.87;;;8.90;99.90;;;;;;5061638;28;20056;-79
2022/12/25 10:15:55;;;;;;;21.35;10.52;;;8.80;99.90;;;;;;5072369;28;20128;-78
2022/12/25 10:18:21;;;;;;;19.10;11.10;;;8.90;99.90;;;;;;5075947;28;20287;-77
2022/12/25 10:20:52;;;;;;;18.17;10.60;;;8.90;99.90;;;;;;5073254;28;20106;-79
2022/12/25 10:23:37;;;;;;;21.10;11.07;;;8.90;99.90;;;;;;5064668;28;20127;-77
2022/12/25 10:26:10;;;;;;;25.40;11.00;;;8.90;99.90;;;;;;5069584;28;20106;-78
2022/12/25 10:28:53;;;;;;;22.07;11.07;;;8.90;99.90;;;;;;5069368;28;20044;-78
2022/12/25 10:31:22;;;;;;;19.77;10.77;;;8.90;99.90;;;;;;5067054;28;20087;-79
2022/12/25 10:33:50;;;;;;;19.17;10.30;;;8.90;99.90;;;;;;5067961;28;20056;-78
2022/12/25 10:36:24;;;;;;;31.20;14.53;;;9.00;99.90;;;;;;5071166;28;20045;-80
2022/12/25 10:38:50;;;;;;;36.03;16.33;;;9.00;99.90;;;;;;5062921;28;20055;-81
2022/12/25 10:41:20;;;;;;;21.13;10.73;;;9.00;99.90;;;;;;5072764;28;20044;-79
2022/12/25 10:43:50;;;;;;;21.57;11.40;;;9.00;99.90;;;;;;5074239;28;20499;-84
2022/12/25 10:46:17;;;;;;;24.10;13.30;;;9.00;99.90;;;;;;5073763;28;20048;-80
2022/12/25 10:48:47;;;;;;;32.73;16.30;;;9.00;99.90;;;;;;5061561;28;20060;-80
2022/12/25 10:51:13;;;;;;;29.23;14.23;;;9.10;99.90;;;;;;5058766;28;20068;-80
2022/12/25 10:53:42;;;;;;;28.67;14.00;;;9.10;99.90;;;;;;5060242;28;20113;-80
2022/12/25 10:56:17;;;;;;;33.03;17.10;;;9.10;99.90;;;;;;5054657;28;20049;-80
2022/12/25 10:58:44;;;;;;;29.70;15.07;;;9.20;99.90;;;;;;5037945;28;20068;-79
2022/12/25 11:01:10;;;;;;;25.83;13.03;;;9.20;99.90;;;;;;5054896;28;20053;-79
2022/12/25 11:03:43;;;;;;;24.70;13.67;;;9.20;99.90;;;;;;5057759;28;20049;-80
2022/12/25 11:06:31;;;;;;;18.47;11.10;;;9.20;99.90;;;;;;5060154;28;20044;-80
2022/12/25 11:08:59;;;;;;;21.70;12.37;;;9.30;99.90;;;;;;5057288;28;20041;-84
2022/12/25 11:11:27;;;;;;;19.77;11.43;;;9.30;99.90;;;;;;5056454;28;20443;-84
2022/12/25 11:13:59;;;;;;;18.80;11.13;;;9.30;99.90;;;;;;5055873;28;20059;-84
2022/12/25 11:16:26;;;;;;;19.83;10.37;;;9.30;99.90;;;;;;5060081;28;20102;-86
2022/12/25 11:18:53;;;;;;;19.90;10.50;;;9.40;99.90;;;;;;5053333;28;20558;-84
2022/12/25 11:21:49;;;;;;;18.30;9.77;;;9.40;99.90;;;;;;5057346;28;20042;-85
2022/12/25 11:24:19;;;;;;;21.27;11.73;;;9.40;99.90;;;;;;5055653;28;20783;-87
2022/12/25 11:26:51;;;;;;;33.40;14.10;;;9.40;99.90;;;;;;5063263;28;20063;-85
2022/12/25 11:30:08;;;;;;;25.60;12.95;;;9.40;99.90;;;;;;5058380;28;20037;-83
2022/12/25 11:32:43;;;;;;;21.20;11.33;;;9.50;99.90;;;;;;5013259;28;20548;-85
2022/12/25 11:35:16;;;;;;;18.70;9.83;;;9.50;99.90;;;;;;5052254;28;20045;-86
2022/12/25 11:37:41;;;;;;;21.47;10.00;;;9.50;99.90;;;;;;5055217;28;20040;-84
2022/12/25 11:40:37;;;;;;;14.53;9.17;;;9.50;99.90;;;;;;5057623;28;20060;-85
2022/12/25 11:43:09;;;;;;;19.43;10.20;;;9.60;99.90;;;;;;5053786;28;20056;-83
2022/12/25 11:45:45;;;;;;;14.57;9.20;;;9.60;99.90;;;;;;5060893;28;20104;-85
2022/12/25 11:48:20;;;;;;;16.07;8.90;;;9.60;99.90;;;;;;5062419;28;20063;-84
2022/12/25 11:50:50;;;;;;;15.40;8.97;;;9.60;99.90;;;;;;5062966;28;20047;-84
2022/12/25 11:53:28;;;;;;;16.80;8.70;;;9.60;99.90;;;;;;5061350;28;20047;-80
2022/12/25 11:56:01;;;;;;;16.03;9.37;;;9.60;99.90;;;;;;5062906;28;20135;-80
2022/12/25 11:58:27;;;;;;;13.30;8.37;;;9.60;99.90;;;;;;5062112;28;20033;-81
2022/12/25 12:00:56;;;;;;;12.93;8.13;;;9.60;99.90;;;;;;5066963;28;20052;-80
2022/12/25 12:03:25;;;;;;;12.90;8.40;;;9.60;99.90;;;;;;5062764;28;20056;-81
2022/12/25 12:06:16;;;;;;;17.17;9.47;;;9.60;99.90;;;;;;5063908;28;20045;-80
2022/12/25 12:08:42;;;;;;;14.13;7.87;;;9.70;99.90;;;;;;5059549;28;20068;-81
2022/12/25 12:11:23;;;;;;;15.10;8.80;;;9.70;99.90;;;;;;5057282;28;20081;-80
2022/12/25 12:13:58;;;;;;;17.50;9.83;;;9.70;99.90;;;;;;5063083;28;20096;-80
2022/12/25 12:16:24;;;;;;;18.00;9.20;;;9.60;99.90;;;;;;5068872;28;20055;-80
2022/12/25 12:18:49;;;;;;;15.13;8.80;;;9.60;99.90;;;;;;5068718;28;20040;-82
2022/12/25 12:21:19;;;;;;;17.67;10.07;;;9.60;99.90;;;;;;5073722;28;20071;-81
2022/12/25 12:24:04;;;;;;;19.07;9.53;;;9.60;99.90;;;;;;5072824;28;20074;-81
2022/12/25 12:26:36;;;;;;;20.37;9.63;;;9.60;99.90;;;;;;5068421;28;20442;-81
2022/12/25 12:29:05;;;;;;;16.03;9.20;;;9.60;99.90;;;;;;5065922;28;20033;-81
2022/12/25 12:31:40;;;;;;;17.23;9.77;;;9.60;99.90;;;;;;5062535;28;20444;-81
2022/12/25 12:34:16;;;;;;;15.47;9.90;;;9.60;99.90;;;;;;5068404;28;20127;-81
2022/12/25 12:36:41;;;;;;;16.80;9.40;;;9.60;99.90;;;;;;5068147;28;20048;-81
2022/12/25 12:39:24;;;;;;;17.10;10.37;;;9.60;99.90;;;;;;5068761;28;20504;-80
2022/12/25 12:41:50;;;;;;;20.50;9.93;;;9.60;99.90;;;;;;5074638;28;20040;-76
2022/12/25 12:44:16;;;;;;;20.87;11.03;;;9.60;99.90;;;;;;5075846;28;20048;-76
2022/12/25 12:47:26;;;;;;;17.27;9.77;;;9.60;99.90;;;;;;5067757;28;20044;-76
2022/12/25 12:49:57;;;;;;;17.30;9.60;;;9.60;99.90;;;;;;5071785;28;20033;-78
2022/12/25 12:52:43;;;;;;;17.63;10.17;;;9.60;99.90;;;;;;5067980;28;20080;-78
2022/12/25 12:55:11;;;;;;;17.10;10.00;;;9.60;99.90;;;;;;5051555;28;20088;-78
2022/12/25 12:57:38;;;;;;;19.60;9.40;;;9.60;99.90;;;;;;5067014;28;20053;-78
2022/12/25 13:00:18;;;;;;;19.93;9.57;;;9.60;99.90;;;;;;5077380;28;20056;-79
2022/12/25 13:03:25;;;;;;;15.97;9.93;;;9.60;99.90;;;;;;5071713;28;20107;-80
2022/12/25 13:06:01;;;;;;;18.73;10.50;;;9.60;99.90;;;;;;5076721;28;20456;-80
2022/12/25 13:08:26;;;;;;;19.60;10.90;;;9.60;99.90;;;;;;5075717;28;20049;-79
2022/12/25 13:11:15;;;;;;;18.07;10.63;;;9.50;99.90;;;;;;5077832;28;20045;-80
2022/12/25 13:13:43;;;;;;;20.40;11.13;;;9.60;99.90;;;;;;5059627;28;20601;-81
2022/12/25 13:16:22;;;;;;;20.27;11.40;;;9.50;99.90;;;;;;5075499;28;20036;-80
2022/12/25 13:18:50;;;;;;;20.47;11.40;;;9.50;99.90;;;;;;5065972;28;20086;-80
2022/12/25 13:21:21;;;;;;;20.03;10.57;;;9.50;99.90;;;;;;5065589;28;20052;-81
2022/12/25 13:23:47;;;;;;;20.43;11.37;;;9.50;99.90;;;;;;5074699;28;20052;-80
2022/12/25 13:26:16;;;;;;;17.00;10.30;;;9.50;99.90;;;;;;5074665;28;20108;-80
2022/12/25 13:28:45;;;;;;;21.33;10.80;;;9.50;99.90;;;;;;5075103;28;20381;-81
2022/12/25 13:31:20;;;;;;;17.80;10.97;;;9.50;99.90;;;;;;5076756;28;20058;-81
2022/12/25 13:33:51;;;;;;;18.20;11.50;;;9.50;99.90;;;;;;5075881;28;20519;-80
2022/12/25 13:36:17;;;;;;;20.50;11.00;;;9.40;99.90;;;;;;5076603;28;20176;-80
2022/12/25 13:38:45;;;;;;;17.33;11.40;;;9.40;99.90;;;;;;5072501;28;20051;-81
2022/12/25 13:44:23;;;;;;;17.10;10.50;;;9.40;99.90;;;;;;5063340;28;20399;-81
2022/12/25 13:46:49;;;;;;;19.33;10.90;;;9.40;99.90;;;;;;5072708;28;20045;-82
2022/12/25 13:49:17;;;;;;;18.77;11.80;;;9.40;99.90;;;;;;5069273;28;20595;-82
2022/12/25 13:51:43;;;;;;;22.63;13.33;;;9.40;99.90;;;;;;5073085;28;20048;-81
2022/12/25 13:54:12;;;;;;;19.63;12.73;;;9.30;99.90;;;;;;5072627;28;20067;-81
2022/12/25 13:56:46;;;;;;;18.83;12.30;;;9.30;99.90;;;;;;5066401;28;20048;-81
2022/12/25 13:59:16;;;;;;;20.17;12.87;;;9.30;99.90;;;;;;5074138;28;20122;-81
2022/12/25 14:01:43;;;;;;;24.33;13.47;;;9.30;99.90;;;;;;5067506;28;20052;-81
2022/12/25 14:04:23;;;;;;;23.10;13.17;;;9.30;99.90;;;;;;5066655;28;20071;-81
2022/12/25 14:06:50;;;;;;;23.17;14.20;;;9.30;99.90;;;;;;5074544;28;20092;-81
2022/12/25 14:09:17;;;;;;;23.00;13.23;;;9.30;99.90;;;;;;5067837;28;20119;-81
2022/12/25 14:11:47;;;;;;;20.93;14.70;;;9.30;99.90;;;;;;5057764;28;20044;-80
2022/12/25 14:14:23;;;;;;;23.17;14.23;;;9.30;99.90;;;;;;5075604;28;20078;-80
2022/12/25 14:16:52;;;;;;;21.60;14.67;;;9.30;99.90;;;;;;5069932;28;20036;-81
2022/12/25 14:19:31;;;;;;;22.57;15.70;;;9.20;99.90;;;;;;5075115;28;20157;-81
2022/12/25 14:22:19;;;;;;;28.23;18.30;;;9.20;99.90;;;;;;5072885;28;20052;-80
2022/12/25 14:24:46;;;;;;;30.03;19.17;;;9.20;99.90;;;;;;5072789;28;20045;-80
2022/12/25 14:27:29;;;;;;;28.07;18.03;;;9.20;99.90;;;;;;5067860;28;20046;-80
2022/12/25 14:29:58;;;;;;;30.77;19.73;;;9.20;99.90;;;;;;5060334;28;20080;-80
2022/12/25 14:32:27;;;;;;;34.47;20.60;;;9.20;99.90;;;;;;5064640;28;20045;-81
2022/12/25 14:35:02;;;;;;;36.33;20.57;;;9.10;99.90;;;;;;5073028;28;20047;-80
2022/12/25 14:37:31;;;;;;;31.83;19.43;;;9.10;99.90;;;;;;5062431;28;20083;-81
2022/12/25 14:40:18;;;;;;;25.80;17.27;;;9.10;99.90;;;;;;5065382;28;20056;-79
2022/12/25 14:42:54;;;;;;;30.20;17.23;;;9.10;99.90;;;;;;5068735;28;20193;-79
2022/12/25 14:45:31;;;;;;;28.87;17.30;;;9.10;99.90;;;;;;5061158;28;20064;-79